Latest Weather Observations for Mortlake

IDV60801

Issued at 8:31 am EDT Sunday 21 December 2014 (issued every 30 minutes, with the page automatically refreshed every 10 minutes)

About weather observations | Map of weather stations | Latest weather observations for VIC | Other Formats
Station Details ID: 090176 Name: MORTLAKE RACECOURSE Lat: -38.07 Lon: 142.77 Height: 130.0 m
Data from the previous 72 hours. | See also: Recent months at Mortlake
Date/Time
EDT
Temp
°C
App
Temp
°C
Dew
Point
Rel
Hum
%
Delta-T
°C
Wind Press
QNH
hPa
Press
MSL
hPa
Rain
since 9 am
mm
Dir
 
Spd
km/h
Gust
km/h
Spd
kts
Gust
kts
21/08:30am 17.4 16.6 12.9 75 2.5 ENE 9 15 5 8 1014.3 1014.1 0.0
21/08:00am 15.0 14.1 12.7 86 1.3 ENE 9 13 5 7 1014.2 1014.0 0.0
21/07:30am 13.2 11.7 11.9 92 0.7 ENE 11 17 6 9 1014.0 1013.8 0.0
21/07:00am 11.8 10.1 11.3 97 0.3 E 11 15 6 8 1013.9 1013.7 0.0
21/06:30am 11.1 8.9 10.9 99 0.1 E 13 19 7 10 1013.6 1013.4 0.0
21/06:00am 10.6 8.3 10.4 99 0.1 ENE 13 17 7 9 1013.6 1013.4 0.0
21/05:30am 10.2 8.6 10.1 99 0.1 ENE 9 13 5 7 1014.1 1013.9 0.0
21/05:00am 9.4 7.9 9.1 98 0.1 E 7 9 4 5 1014.2 1014.0 0.0
21/04:30am 10.2 9.0 9.7 97 0.3 E 6 7 3 4 1014.1 1013.9 0.0
21/04:00am 11.0 10.4 10.5 97 0.3 NE 4 7 2 4 1014.1 1013.9 0.0
21/03:30am 11.8 9.7 11.2 96 0.3 NE 13 22 7 12 1014.0 1013.8 0.0
21/03:00am 12.0 10.4 11.4 96 0.3 NE 11 19 6 10 1014.0 1013.8 0.0
21/02:30am 11.9 10.6 11.3 96 0.3 NE 9 13 5 7 1014.6 1014.4 0.0
21/02:00am 11.2 10.1 10.7 97 0.3 ESE 7 15 4 8 1015.1 1014.9 0.0
21/01:30am 10.3 9.9 9.7 96 0.3 SE 2 4 1 2 1015.6 1015.4 0.0
21/01:00am 10.4 10.3 9.6 95 0.4 CALM 0 4 0 2 1015.9 1015.7 0.0
21/12:30am 10.5 10.1 9.6 94 0.5 SE 2 4 1 2 1016.4 1016.2 0.0
21/12:00am 10.9 9.6 9.8 93 0.6 SE 7 7 4 4 1016.9 1016.7 0.0
 
Date/Time
EDT
Temp
°C
App
Temp
°C
Dew
Point
Rel
Hum
%
Delta-T
°C
Wind Press
QNH
hPa
Press
MSL
hPa
Rain
since 9 am
mm
Dir
 
Spd
km/h
Gust
km/h
Spd
kts
Gust
kts
20/11:30pm 10.9 9.7 9.5 91 0.7 SE 6 7 3 4 1017.2 1017.0 0.0
20/11:00pm 11.2 9.8 9.6 90 0.8 SE 7 7 4 4 1017.5 1017.3 0.0
20/10:30pm 11.8 10.5 9.9 88 1.0 SE 7 9 4 5 1017.4 1017.2 0.0
20/10:00pm 12.8 11.5 10.0 83 1.4 SSE 7 9 4 5 1017.5 1017.3 0.0
20/09:30pm 13.0 10.9 9.6 80 1.7 SSE 11 11 6 6 1017.5 1017.3 0.0
20/09:00pm 14.8 13.2 10.2 74 2.4 S 9 11 5 6 1017.4 1017.2 0.0
20/08:30pm 16.6 14.8 10.7 68 3.2 S 11 15 6 8 1017.3 1017.1 0.0
20/08:00pm 17.8 15.2 10.7 63 3.8 S 15 19 8 10 1017.1 1016.9 0.0
20/07:30pm 18.4 15.4 10.5 60 4.3 S 17 24 9 13 1016.9 1016.7 0.0
20/07:00pm 19.2 16.2 10.5 57 4.7 S 17 24 9 13 1016.7 1016.5 0.0
20/06:30pm 20.0 17.1 11.0 56 4.9 S 17 24 9 13 1016.7 1016.5 0.0
20/06:00pm 21.1 18.4 11.7 55 5.3 SSW 17 28 9 15 1016.7 1016.5 0.0
20/05:30pm 21.8 19.0 11.5 52 5.8 S 17 28 9 15 1016.7 1016.5 0.0
20/05:00pm 21.6 18.2 10.7 50 6.0 S 19 30 10 16 1016.9 1016.7 0.0
20/04:30pm 21.9 18.9 10.7 49 6.2 SSW 17 26 9 14 1017.1 1016.9 0.0
20/04:00pm 22.1 19.8 11.8 52 5.8 SSW 15 22 8 12 1017.5 1017.3 0.0
20/03:30pm 21.9 19.1 11.3 51 5.9 SW 17 22 9 12 1017.9 1017.7 0.0
20/03:00pm 21.8 19.0 11.2 51 5.9 SW 17 28 9 15 1018.1 1017.9 0.0
20/02:30pm 22.2 19.5 11.6 51 6.0 SW 17 28 9 15 1018.4 1018.2 0.0
20/02:00pm 21.8 19.0 11.5 52 5.8 S 17 30 9 16 1018.6 1018.4 0.0
20/01:30pm 22.4 19.4 11.8 51 6.0 SW 19 30 10 16 1018.7 1018.5 0.0
20/01:00pm 21.8 19.0 11.5 52 5.8 SW 17 26 9 14 1018.8 1018.6 0.0
20/12:30pm 21.1 18.8 10.6 51 5.8 SW 13 22 7 12 1018.9 1018.7 0.0
20/12:00pm 20.7 18.9 10.8 53 5.4 SW 11 20 6 11 1019.2 1019.0 0.0
20/11:30am 19.6 17.3 10.3 55 5.0 WSW 13 22 7 12 1019.3 1019.1 0.0
20/11:00am 18.9 17.0 10.5 58 4.5 WSW 11 20 6 11 1019.4 1019.2 0.0
20/10:30am 18.2 15.9 10.6 61 4.1 SW 13 20 7 11 1019.7 1019.5 0.0
20/10:00am 17.1 15.0 9.8 62 3.8 WSW 11 17 6 9 1019.8 1019.6 0.0
20/09:30am 16.2 14.3 10.5 69 3.0 W 11 19 6 10 1019.8 1019.6 0.0
20/09:00am 15.1 14.1 10.9 76 2.2 W 7 15 4 8 1019.7 1019.5 0.2
20/08:30am 13.0 12.3 11.4 90 0.9 WNW 6 9 3 5 1019.4 1019.2 0.2
20/08:00am 11.4 10.5 10.6 95 0.4 NW 6 7 3 4 1019.1 1018.9 0.2
20/07:30am 10.2 8.9 9.9 98 0.2 NW 7 9 4 5 1018.7 1018.5 0.2
20/07:00am 8.2 6.4 8.1 99 0.0 NW 7 9 4 5 1018.6 1018.4 0.2
20/06:30am 6.2 4.2 6.1 99 0.0 NW 6 6 3 3 1018.3 1018.1 0.2
20/06:00am 6.0 3.9 5.9 99 0.0 NW 6 6 3 3 1018.2 1018.0 0.2
20/05:30am 5.9 3.8 5.8 99 0.0 NW 6 7 3 4 1018.1 1017.9 0.2
20/05:00am 6.0 3.9 5.9 99 0.0 NW 6 7 3 4 1018.1 1017.9 0.2
20/04:30am 6.7 4.6 6.6 99 0.0 NW 7 7 4 4 1018.1 1017.9 0.2
20/04:00am 6.2 4.0 6.1 99 0.0 NW 7 7 4 4 1018.1 1017.9 0.2
20/03:30am 6.5 4.9 6.2 98 0.1 NW 4 6 2 3 1018.4 1018.2 0.2
20/03:00am 6.8 4.8 6.4 97 0.2 NW 6 6 3 3 1018.6 1018.4 0.2
20/02:30am 6.9 5.0 6.6 98 0.1 NW 6 7 3 4 1018.7 1018.5 0.2
20/02:00am 7.1 5.2 6.7 97 0.2 NW 6 6 3 3 1019.2 1019.0 0.2
20/01:30am 7.2 5.3 6.6 96 0.3 SW 6 7 3 4 1019.5 1019.3 0.2
20/01:00am 7.8 6.4 7.2 96 0.3 SW 4 4 2 2 1019.7 1019.5 0.2
20/12:30am 8.2 6.9 7.6 96 0.3 SW 4 4 2 2 1019.8 1019.6 0.2
20/12:00am 8.3 7.0 7.5 95 0.4 SW 4 6 2 3 1019.9 1019.7 0.2
 
Date/Time
EDT
Temp
°C
App
Temp
°C
Dew
Point
Rel
Hum
%
Delta-T
°C
Wind Press
QNH
hPa
Press
MSL
hPa
Rain
since 9 am
mm
Dir
 
Spd
km/h
Gust
km/h
Spd
kts
Gust
kts
19/11:30pm 8.7 8.1 7.3 91 0.7 CALM 0 0 0 0 1020.3 1020.1 0.2
19/11:00pm 10.7 9.6 8.6 87 1.0 SW 4 4 2 2 1020.5 1020.4 0.2
19/10:30pm 10.7 9.6 8.6 87 1.0 SSW 4 4 2 2 1020.5 1020.4 0.2
19/10:00pm 10.9 9.4 8.3 84 1.3 SSW 6 6 3 3 1020.4 1020.3 0.2
19/09:30pm 11.5 9.4 8.2 80 1.6 SSW 9 11 5 6 1020.3 1020.1 0.2
19/09:00pm 12.5 10.3 8.0 74 2.2 SSW 9 13 5 7 1020.3 1020.1 0.2
19/08:30pm 14.1 10.4 7.9 66 3.1 SSW 17 24 9 13 1020.2 1020.0 0.2
19/08:00pm 15.4 10.6 7.2 58 4.1 SSW 22 30 12 16 1020.0 1019.8 0.2
19/07:30pm 16.1 11.2 7.1 55 4.5 SSW 22 32 12 17 1019.7 1019.5 0.2
19/07:00pm 16.8 12.1 7.7 55 4.6 SSW 22 30 12 16 1019.4 1019.2 0.2
19/06:30pm 16.9 12.0 7.0 52 4.9 SW 22 32 12 17 1019.1 1018.9 0.2
19/06:00pm 17.6 12.4 7.4 51 5.1 SW 24 37 13 20 1018.9 1018.7 0.2
19/05:30pm 18.3 13.2 7.7 50 5.4 SSW 24 35 13 19 1018.7 1018.5 0.2
19/05:00pm 18.0 12.8 7.1 49 5.5 SW 24 39 13 21 1018.7 1018.5 0.2
19/04:30pm 18.5 13.0 7.6 49 5.6 SW 26 39 14 21 1018.7 1018.5 0.2
19/04:00pm 19.2 13.1 8.2 49 5.7 SW 30 41 16 22 1018.6 1018.4 0.2
19/03:30pm 18.7 13.5 7.2 47 5.8 SW 24 35 13 19 1018.4 1018.2 0.2
19/03:00pm 18.0 12.7 6.8 48 5.6 SSW 24 39 13 21 1018.4 1018.2 0.2
19/02:30pm 18.6 13.7 6.8 46 5.9 SW 22 35 12 19 1018.4 1018.2 0.2
19/02:00pm 18.4 14.1 6.9 47 5.8 SW 19 37 10 20 1018.4 1018.2 0.2
19/01:30pm 18.5 13.3 7.3 48 5.7 SW 24 41 13 22 1018.5 1018.3 0.2
19/01:00pm 17.3 12.2 6.2 48 5.5 WSW 22 35 12 19 1018.5 1018.3 0.2
19/12:30pm 17.2 12.4 7.3 52 5.0 SW 22 30 12 16 1018.7 1018.5 0.2
19/12:00pm 16.1 11.5 6.5 53 4.7 SW 20 32 11 17 1018.6 1018.4 0.2
19/11:30am 16.2 11.6 6.6 53 4.7 WSW 20 30 11 16 1018.7 1018.5 0.2
19/11:00am 15.5 10.9 6.5 55 4.4 WSW 20 30 11 16 1018.6 1018.4 0.2
19/10:30am 14.7 10.2 7.0 60 3.8 SW 20 28 11 15 1018.6 1018.4 0.2
19/10:00am 15.3 12.7 9.2 67 3.1 SW 13 24 7 13 1018.3 1018.1 0.0
19/09:30am 12.7 10.3 8.8 77 2.0 W 11 17 6 9 1018.5 1018.3 0.0
19/09:00am 12.4 10.5 9.1 80 1.7 WNW 9 13 5 7 1018.1 1017.9 7.0
19/08:30am 12.3 9.9 8.6 78 1.9 W 11 19 6 10 1017.9 1017.7 7.0
19/08:00am 10.9 9.2 8.5 85 1.2 WNW 7 11 4 6 1017.4 1017.2 7.0
19/07:30am 9.6 7.6 8.5 93 0.5 NW 9 13 5 7 1017.0 1016.8 7.0
19/07:00am 8.6 6.9 8.3 98 0.1 NW 7 9 4 5 1016.4 1016.2 7.0
19/06:30am 7.4 5.4 7.3 99 0.0 NW 7 7 4 4 1016.1 1015.9 7.0
19/06:00am 6.0 4.3 5.7 98 0.1 NW 4 6 2 3 1016.1 1015.9 7.0
19/05:30am 6.7 4.5 6.4 98 0.1 NW 7 9 4 5 1015.7 1015.5 7.0
19/05:00am 7.9 6.2 7.6 98 0.1 WNW 6 9 3 5 1015.5 1015.3 7.0
19/04:30am 8.8 7.2 8.7 99 0.0 W 7 9 4 5 1015.3 1015.1 7.0
19/04:00am 7.9 6.1 7.8 99 0.0 WNW 7 9 4 5 1015.0 1014.8 7.0
19/03:30am 8.0 6.0 7.2 95 0.4 WNW 7 9 4 5 1014.9 1014.7 7.0
19/03:00am 9.0 6.9 8.4 96 0.3 WNW 9 13 5 7 1014.7 1014.5 7.0
19/02:30am 9.2 6.5 9.1 99 0.0 WNW 13 19 7 10 1014.9 1014.7 7.0
19/02:00am 7.2 5.2 6.9 98 0.1 WNW 7 9 4 5 1014.8 1014.6 7.0
19/01:30am 7.2 5.2 6.9 98 0.1 WNW 7 9 4 5 1014.9 1014.7 7.0
19/01:00am 6.8 4.7 6.5 98 0.1 WNW 7 9 4 5 1014.7 1014.5 7.0
19/12:30am 7.4 5.3 6.7 95 0.3 WNW 7 9 4 5 1014.7 1014.5 7.0
19/12:00am 8.5 6.3 7.7 95 0.4 WNW 9 11 5 6 1014.7 1014.5 7.0
 
Date/Time
EDT
Temp
°C
App
Temp
°C
Dew
Point
Rel
Hum
%
Delta-T
°C
Wind Press
QNH
hPa
Press
MSL
hPa
Rain
since 9 am
mm
Dir
 
Spd
km/h
Gust
km/h
Spd
kts
Gust
kts
18/11:30pm 9.0 7.2 7.8 92 0.6 WNW 7 9 4 5 1014.4 1014.2 7.0
18/11:00pm 10.5 8.9 8.8 89 0.8 W 7 13 4 7 1014.4 1014.2 7.0
18/10:30pm 11.8 10.0 9.4 85 1.2 WSW 9 15 5 8 1014.2 1014.0 7.0
18/10:00pm 11.9 9.6 9.1 83 1.4 W 11 24 6 13 1014.3 1014.1 7.0
18/09:30pm 11.9 9.8 8.2 78 1.8 WSW 9 13 5 7 1013.6 1013.4 7.0
18/09:00pm 12.6 9.6 7.9 73 2.3 SW 13 19 7 10 1013.2 1013.0 7.0
18/08:30pm 13.8 9.4 7.6 66 3.1 SW 20 30 11 16 1012.8 1012.6 7.0
18/08:00pm 14.7 9.7 8.0 64 3.4 SW 24 37 13 20 1012.1 1011.9 7.0
18/07:30pm 15.5 10.0 7.5 59 4.0 SW 26 41 14 22 1011.6 1011.4 7.0
18/07:00pm 15.7 10.7 9.4 66 3.3 SW 26 39 14 21 1011.0 1010.8 7.0
18/06:30pm 15.6 11.4 9.9 69 3.0 SW 22 37 12 20 1010.7 1010.5 7.0
18/06:00pm 14.8 11.2 10.4 75 2.3 WSW 20 32 11 17 1010.4 1010.2 7.0
18/05:30pm 13.1 9.5 12.0 93 0.6 WSW 22 32 12 17 1010.1 1009.9 7.0
18/05:23pm 12.1 6.5 10.0 87 1.1 SW 30 50 16 27 1010.1 1009.9 6.6
18/05:20pm 12.5 6.3 9.5 82 1.5 SW 32 50 17 27 1010.3 1010.1 6.0
18/05:00pm 17.7 12.2 9.3 58 4.4 WSW 28 39 15 21 1009.3 1009.1 4.2
18/04:30pm 15.8 12.1 11.4 75 2.4 WSW 22 32 12 17 1009.4 1009.2 4.2
18/04:00pm 13.9 10.2 11.6 86 1.2 WSW 22 32 12 17 1009.1 1008.9 4.2
18/03:38pm 13.4 8.1 10.0 80 1.8 WSW 28 52 15 28 1009.1 1008.9 4.0
18/03:30pm 17.3 13.7 10.7 65 3.6 WSW 20 28 11 15 1008.4 1008.2 4.0
18/03:00pm 16.2 13.1 11.6 74 2.5 WSW 19 26 10 14 1008.2 1008.0 4.0
18/02:30pm 14.6 11.3 11.0 79 1.9 WSW 19 30 10 16 1008.2 1008.0 4.0
18/02:00pm 15.2 13.1 13.6 90 0.9 W 17 28 9 15 1007.9 1007.7 4.0
18/01:30pm 13.3 10.4 12.2 93 0.6 WSW 19 30 10 16 1007.9 1007.7 4.0
18/01:00pm 12.4 7.6 11.6 95 0.4 WSW 28 48 15 26 1007.7 1007.5 3.0
18/12:47pm 13.4 8.1 9.8 79 1.9 W 28 54 15 29 1007.5 1007.3 0.6
18/12:30pm 19.1 13.9 8.7 51 5.5 W 26 37 14 20 1006.3 1006.0 0.0
18/12:00pm 18.9 14.4 9.9 56 4.8 WNW 24 37 13 20 1006.3 1006.0 0.0
18/11:30am 17.8 12.2 10.2 61 4.1 NW 30 43 16 23 1006.6 1006.3 0.0
18/11:00am 17.0 10.1 8.9 59 4.2 WNW 35 46 19 25 1006.8 1006.5 0.0
18/10:30am 17.3 11.6 9.7 61 4.0 WNW 30 43 16 23 1006.9 1006.6 0.0
18/10:00am 16.9 12.2 9.3 61 4.0 WNW 24 35 13 19 1007.0 1006.7 0.0
18/09:30am 16.6 11.0 8.6 59 4.1 WNW 28 37 15 20 1007.1 1006.8 0.0
18/09:00am 16.3 11.3 8.0 58 4.2 NW 24 32 13 17 1006.7 1006.4 0.0

Other Formats:

Comma delimited format used in spreadsheet applications
http://www.bom.gov.au/fwo/IDV60801/IDV60801.94840.axf

JavaScript Object Notation format (JSON) in row-major order
http://www.bom.gov.au/fwo/IDV60801/IDV60801.94840.json